CFG3VT LEPA-EDDF
Flight info
| Callsign | CFG3VT |
|---|---|
| Flight time | N/A |
| Altitude | 32000 |
| Route | MEROS DCT LAPIT DCT CHELY DCT LUMAS DCT MAXIR DCT LUSOL DCT BODRU DCT OKTET DCT IRMAR/N0448F340 DCT BERSU N871 DITON/N0448F350 DCT LADOL/N0447F340 T163 EMPAX EMPAX5B |
| Aircraft | A321/M-SDE3FGHIRWY/LB1 |
Departure
| Time | N/A |
|---|---|
| Airport | Palma de Mallorca Airport (LEPA) |
Arrival
| Time | 2026-05-04 14:24 |
|---|---|
| Airport | Frankfurt Main Airport (EDDF) |
| Time | Latitude | Longitude | Altitude | Speed | Heading |
|---|---|---|---|---|---|
| 2026-05-04 13:59 | 48.19831 | 8.95759 | 34982 ft | 472 kts | 4° |
| 2026-05-04 13:59 | 48.23088 | 8.96266 | 34982 ft | 470 kts | 2° |
| 2026-05-04 14:00 | 48.32856 | 8.97767 | 34982 ft | 471 kts | 3° |
| 2026-05-04 14:00 | 48.42592 | 8.99270 | 34982 ft | 470 kts | 3° |
| 2026-05-04 14:01 | 48.49111 | 9.00269 | 34977 ft | 471 kts | 3° |
| 2026-05-04 14:02 | 48.58926 | 9.01768 | 34615 ft | 470 kts | 3° |
| 2026-05-04 14:02 | 48.62140 | 9.02258 | 33982 ft | 470 kts | 2° |
| 2026-05-04 14:02 | 48.65403 | 9.02827 | 33224 ft | 472 kts | 5° |
| 2026-05-04 14:02 | 48.68671 | 9.03536 | 32438 ft | 475 kts | 6° |
| 2026-05-04 14:03 | 48.71944 | 9.04343 | 31646 ft | 478 kts | 7° |
| 2026-05-04 14:03 | 48.75233 | 9.05199 | 30855 ft | 482 kts | 7° |
| 2026-05-04 14:03 | 48.78545 | 9.06065 | 30064 ft | 485 kts | 7° |
| 2026-05-04 14:03 | 48.81882 | 9.06918 | 29166 ft | 487 kts | 7° |
| 2026-05-04 14:04 | 48.88602 | 9.08553 | 27464 ft | 490 kts | 6° |
| 2026-05-04 14:04 | 48.91970 | 9.09210 | 26626 ft | 491 kts | 4° |
| 2026-05-04 14:04 | 48.95381 | 9.09714 | 25952 ft | 487 kts | 2° |
| 2026-05-04 14:05 | 49.02071 | 9.10496 | 24739 ft | 479 kts | 2° |
| 2026-05-04 14:05 | 49.05378 | 9.10886 | 24162 ft | 475 kts | 2° |
| 2026-05-04 14:05 | 49.08660 | 9.11308 | 23625 ft | 471 kts | 3° |
| 2026-05-04 14:06 | 49.11923 | 9.11763 | 22955 ft | 468 kts | 3° |
| 2026-05-04 14:06 | 49.15156 | 9.12234 | 22283 ft | 463 kts | 4° |
| 2026-05-04 14:06 | 49.18315 | 9.12701 | 21648 ft | 460 kts | 4° |
| 2026-05-04 14:06 | 49.21482 | 9.13170 | 21017 ft | 456 kts | 4° |
| 2026-05-04 14:07 | 49.24626 | 9.13632 | 20424 ft | 451 kts | 3° |
| 2026-05-04 14:07 | 49.27736 | 9.14098 | 19840 ft | 447 kts | 5° |
| 2026-05-04 14:07 | 49.30780 | 9.15009 | 19256 ft | 444 kts | 11° |
| 2026-05-04 14:07 | 49.33778 | 9.16063 | 18689 ft | 440 kts | 11° |
| 2026-05-04 14:08 | 49.36745 | 9.17114 | 18112 ft | 436 kts | 12° |
| 2026-05-04 14:08 | 49.39691 | 9.18161 | 17514 ft | 432 kts | 12° |
| 2026-05-04 14:08 | 49.42604 | 9.19197 | 16919 ft | 427 kts | 12° |
| 2026-05-04 14:08 | 49.45486 | 9.20219 | 16353 ft | 423 kts | 12° |
| 2026-05-04 14:09 | 49.50199 | 9.21897 | 15689 ft | 409 kts | 12° |
| 2026-05-04 14:09 | 49.52922 | 9.22869 | 15561 ft | 395 kts | 12° |
| 2026-05-04 14:10 | 49.58125 | 9.24734 | 15311 ft | 372 kts | 12° |
| 2026-05-04 14:10 | 49.60609 | 9.25627 | 15192 ft | 361 kts | 12° |
| 2026-05-04 14:10 | 49.63021 | 9.26493 | 15069 ft | 350 kts | 13° |
| 2026-05-04 14:10 | 49.65353 | 9.27330 | 14944 ft | 339 kts | 13° |
| 2026-05-04 14:11 | 49.67615 | 9.28138 | 14781 ft | 330 kts | 12° |
| 2026-05-04 14:11 | 49.72053 | 9.29722 | 14146 ft | 324 kts | 13° |
| 2026-05-04 14:11 | 49.74271 | 9.30365 | 13499 ft | 330 kts | 0° |
| 2026-05-04 14:12 | 49.76587 | 9.29925 | 12610 ft | 342 kts | 346° |
| 2026-05-04 14:12 | 49.78950 | 9.29019 | 11623 ft | 358 kts | 344° |
| 2026-05-04 14:12 | 49.83944 | 9.26977 | 10192 ft | 374 kts | 344° |
| 2026-05-04 14:13 | 49.86423 | 9.25953 | 10024 ft | 361 kts | 344° |
| 2026-05-04 14:13 | 49.88778 | 9.24980 | 9895 ft | 348 kts | 344° |
| 2026-05-04 14:13 | 49.91090 | 9.24028 | 9761 ft | 336 kts | 344° |
| 2026-05-04 14:13 | 49.93306 | 9.23122 | 9625 ft | 324 kts | 344° |
| 2026-05-04 14:14 | 49.95444 | 9.22248 | 9495 ft | 312 kts | 344° |
| 2026-05-04 14:14 | 49.99526 | 9.20594 | 8751 ft | 296 kts | 344° |
| 2026-05-04 14:14 | 50.01492 | 9.19795 | 8242 ft | 293 kts | 344° |
| 2026-05-04 14:15 | 50.05416 | 9.18221 | 7238 ft | 285 kts | 345° |
| 2026-05-04 14:15 | 50.09099 | 9.16372 | 6295 ft | 271 kts | 321° |
| 2026-05-04 14:16 | 50.10922 | 9.11630 | 5481 ft | 249 kts | 285° |
| 2026-05-04 14:16 | 50.11402 | 9.09131 | 5335 ft | 233 kts | 284° |
| 2026-05-04 14:17 | 50.12266 | 9.04404 | 4476 ft | 225 kts | 283° |
| 2026-05-04 14:17 | 50.12688 | 9.02133 | 4324 ft | 212 kts | 283° |
| 2026-05-04 14:17 | 50.13178 | 8.97837 | 4012 ft | 200 kts | 261° |
| 2026-05-04 14:18 | 50.12760 | 8.95765 | 4020 ft | 201 kts | 249° |
| 2026-05-04 14:18 | 50.11805 | 8.91671 | 4005 ft | 201 kts | 250° |
| 2026-05-04 14:19 | 50.10848 | 8.87592 | 4018 ft | 202 kts | 250° |
| 2026-05-04 14:19 | 50.10377 | 8.85587 | 3885 ft | 189 kts | 250° |
| 2026-05-04 14:19 | 50.09936 | 8.83713 | 3703 ft | 174 kts | 250° |
| 2026-05-04 14:19 | 50.09531 | 8.81990 | 3468 ft | 170 kts | 250° |
| 2026-05-04 14:20 | 50.09126 | 8.80273 | 3250 ft | 166 kts | 250° |
| 2026-05-04 14:20 | 50.08729 | 8.78590 | 3035 ft | 165 kts | 250° |
| 2026-05-04 14:20 | 50.08332 | 8.76907 | 2809 ft | 164 kts | 250° |
| 2026-05-04 14:21 | 50.07540 | 8.73592 | 2309 ft | 161 kts | 251° |
| 2026-05-04 14:21 | 50.07160 | 8.71982 | 2073 ft | 160 kts | 252° |
| 2026-05-04 14:21 | 50.06872 | 8.70318 | 1962 ft | 160 kts | 264° |
| 2026-05-04 14:21 | 50.06817 | 8.68590 | 1847 ft | 156 kts | 264° |
| 2026-05-04 14:22 | 50.06536 | 8.67027 | 1682 ft | 143 kts | 249° |
| 2026-05-04 14:22 | 50.06169 | 8.65634 | 1423 ft | 139 kts | 248° |
| 2026-05-04 14:22 | 50.05803 | 8.64229 | 1202 ft | 142 kts | 250° |
| 2026-05-04 14:22 | 50.05469 | 8.62806 | 1036 ft | 140 kts | 250° |
| 2026-05-04 14:23 | 50.04810 | 8.59957 | 631 ft | 140 kts | 249° |
| 2026-05-04 14:23 | 50.04483 | 8.58579 | 418 ft | 135 kts | 246° |
| 2026-05-04 14:23 | 50.04174 | 8.57308 | 369 ft | 120 kts | 249° |
| 2026-05-04 14:24 | 50.03922 | 8.56228 | 359 ft | 71 kts | 250° |
| 2026-05-04 14:24 | 50.03784 | 8.55658 | 354 ft | 27 kts | 250° |
| 2026-05-04 14:24 | 50.03844 | 8.55513 | 354 ft | 10 kts | 339° |
| 2026-05-04 14:24 | 50.03894 | 8.55485 | 352 ft | 9 kts | 342° |
| 2026-05-04 14:25 | 50.03959 | 8.55461 | 358 ft | 11 kts | 347° |
| 2026-05-04 14:25 | 50.04076 | 8.55408 | 356 ft | 8 kts | 346° |
| 2026-05-04 14:25 | 50.04127 | 8.55471 | 358 ft | 13 kts | 68° |
| 2026-05-04 14:26 | 50.04122 | 8.55491 | 357 ft | 0 kts | 140° |
| 2026-05-04 14:26 | 50.04122 | 8.55492 | 357 ft | 1 kts | 140° |
| 2026-05-04 14:26 | 50.04092 | 8.55517 | 356 ft | 9 kts | 158° |
| 2026-05-04 14:26 | 50.04053 | 8.55539 | 358 ft | 4 kts | 160° |
| 2026-05-04 14:27 | 50.04042 | 8.55546 | 354 ft | 0 kts | 160° |